NPV7805 LIME-LIBC
Flight info
| Callsign | NPV7805 |
|---|---|
| Flight time | 1h 21m |
| Altitude | 19000 |
| Route | ILFUG1PXLOGDI1S/28 LOGDI Y663 EKDIR/N0449F370 DCT INSOX DCT POLIT DCT EVINO/N0394F190 M620 CDC |
| Aircraft | A320/M-SDE3FGHIRWY/LB1 |
Departure
| Time | 2026-04-24 19:40 |
|---|---|
| Airport | Il Caravaggio International Airport (LIME) |
Arrival
| Time | 2026-04-24 21:02 |
|---|---|
| Airport | Crotone Sant'Anna Pythagoras Airport (LIBC) |
| Time | Latitude | Longitude | Altitude | Speed | Heading |
|---|---|---|---|---|---|
| 2026-04-24 19:22 | 45.66571 | 9.70523 | 780 ft | 0 kts | 194° |
| 2026-04-24 19:33 | 45.66576 | 9.70524 | 780 ft | 4 kts | 193° |
| 2026-04-24 19:34 | 45.66602 | 9.70532 | 779 ft | 4 kts | 186° |
| 2026-04-24 19:34 | 45.66629 | 9.70533 | 779 ft | 4 kts | 165° |
| 2026-04-24 19:34 | 45.66648 | 9.70517 | 779 ft | 2 kts | 106° |
| 2026-04-24 19:34 | 45.66648 | 9.70515 | 779 ft | 0 kts | 105° |
| 2026-04-24 19:37 | 45.66642 | 9.70548 | 779 ft | 10 kts | 105° |
| 2026-04-24 19:37 | 45.66620 | 9.70669 | 778 ft | 13 kts | 104° |
| 2026-04-24 19:37 | 45.66597 | 9.70793 | 777 ft | 16 kts | 105° |
| 2026-04-24 19:37 | 45.66566 | 9.70961 | 775 ft | 18 kts | 104° |
| 2026-04-24 19:38 | 45.66525 | 9.71146 | 774 ft | 20 kts | 112° |
| 2026-04-24 19:38 | 45.66480 | 9.71342 | 772 ft | 22 kts | 105° |
| 2026-04-24 19:38 | 45.66441 | 9.71560 | 770 ft | 24 kts | 98° |
| 2026-04-24 19:38 | 45.66472 | 9.71795 | 768 ft | 24 kts | 80° |
| 2026-04-24 19:39 | 45.66441 | 9.72042 | 765 ft | 26 kts | 104° |
| 2026-04-24 19:39 | 45.66395 | 9.72298 | 763 ft | 28 kts | 104° |
| 2026-04-24 19:39 | 45.66409 | 9.72464 | 762 ft | 14 kts | 12° |
| 2026-04-24 19:39 | 45.66477 | 9.72346 | 763 ft | 27 kts | 285° |
| 2026-04-24 19:40 | 45.66584 | 9.71774 | 768 ft | 93 kts | 284° |
| 2026-04-24 19:40 | 45.66799 | 9.70621 | 778 ft | 148 kts | 285° |
| 2026-04-24 19:40 | 45.67080 | 9.69100 | 1240 ft | 158 kts | 284° |
| 2026-04-24 19:40 | 45.67112 | 9.67545 | 1930 ft | 159 kts | 255° |
| 2026-04-24 19:41 | 45.66586 | 9.66167 | 2592 ft | 162 kts | 227° |
| 2026-04-24 19:41 | 45.65763 | 9.64943 | 2953 ft | 181 kts | 227° |
| 2026-04-24 19:41 | 45.64865 | 9.63621 | 3446 ft | 188 kts | 227° |
| 2026-04-24 19:41 | 45.63947 | 9.62271 | 4025 ft | 191 kts | 227° |
| 2026-04-24 19:42 | 45.63017 | 9.60902 | 4595 ft | 193 kts | 227° |
| 2026-04-24 19:42 | 45.62076 | 9.59519 | 5167 ft | 195 kts | 227° |
| 2026-04-24 19:42 | 45.61121 | 9.58127 | 5801 ft | 199 kts | 226° |
| 2026-04-24 19:42 | 45.60123 | 9.56700 | 6225 ft | 210 kts | 226° |
| 2026-04-24 19:43 | 45.59030 | 9.55143 | 6422 ft | 235 kts | 226° |
| 2026-04-24 19:43 | 45.57829 | 9.53448 | 6923 ft | 247 kts | 221° |
| 2026-04-24 19:43 | 45.56336 | 9.52189 | 7606 ft | 253 kts | 198° |
| 2026-04-24 19:43 | 45.54594 | 9.51857 | 8338 ft | 257 kts | 174° |
| 2026-04-24 19:44 | 45.52870 | 9.52514 | 9097 ft | 258 kts | 155° |
| 2026-04-24 19:44 | 45.51212 | 9.53536 | 9901 ft | 261 kts | 155° |
| 2026-04-24 19:44 | 45.49536 | 9.54558 | 10628 ft | 264 kts | 155° |
| 2026-04-24 19:44 | 45.47836 | 9.55584 | 11347 ft | 267 kts | 156° |
| 2026-04-24 19:45 | 45.46112 | 9.56619 | 11989 ft | 274 kts | 156° |
| 2026-04-24 19:45 | 45.44306 | 9.57707 | 12390 ft | 290 kts | 156° |
| 2026-04-24 19:45 | 45.42389 | 9.58864 | 12693 ft | 309 kts | 156° |
| 2026-04-24 19:45 | 45.40339 | 9.60097 | 12948 ft | 330 kts | 156° |
| 2026-04-24 19:46 | 45.38159 | 9.61406 | 13223 ft | 349 kts | 156° |
| 2026-04-24 19:46 | 45.35950 | 9.62980 | 13552 ft | 363 kts | 147° |
| 2026-04-24 19:46 | 45.33801 | 9.64971 | 13934 ft | 375 kts | 146° |
| 2026-04-24 19:46 | 45.31589 | 9.67023 | 14331 ft | 384 kts | 146° |
| 2026-04-24 19:47 | 45.29336 | 9.69110 | 14862 ft | 389 kts | 146° |
| 2026-04-24 19:47 | 45.27051 | 9.71222 | 15451 ft | 392 kts | 146° |
| 2026-04-24 19:47 | 45.24756 | 9.73341 | 16030 ft | 395 kts | 146° |
| 2026-04-24 19:47 | 45.22462 | 9.75457 | 16612 ft | 398 kts | 146° |
| 2026-04-24 19:48 | 45.20124 | 9.77614 | 17185 ft | 401 kts | 146° |
| 2026-04-24 19:48 | 45.17778 | 9.79771 | 17742 ft | 403 kts | 146° |
| 2026-04-24 19:48 | 45.13022 | 9.84131 | 18792 ft | 409 kts | 146° |
| 2026-04-24 19:49 | 45.08223 | 9.88526 | 19773 ft | 414 kts | 146° |
| 2026-04-24 19:49 | 45.03375 | 9.92950 | 20735 ft | 418 kts | 146° |
| 2026-04-24 19:50 | 44.95906 | 9.99560 | 22138 ft | 425 kts | 148° |
| 2026-04-24 19:50 | 44.93359 | 10.01641 | 22595 ft | 428 kts | 149° |
| 2026-04-24 19:51 | 44.88143 | 10.05829 | 23471 ft | 432 kts | 149° |
| 2026-04-24 19:51 | 44.85522 | 10.07948 | 23842 ft | 434 kts | 149° |
| 2026-04-24 19:52 | 44.80300 | 10.12219 | 24546 ft | 438 kts | 148° |
| 2026-04-24 19:52 | 44.77670 | 10.14389 | 24894 ft | 440 kts | 148° |
| 2026-04-24 19:52 | 44.74997 | 10.16591 | 25242 ft | 442 kts | 148° |
| 2026-04-24 19:52 | 44.72361 | 10.18756 | 25580 ft | 444 kts | 148° |
| 2026-04-24 19:53 | 44.69778 | 10.21172 | 25912 ft | 445 kts | 142° |
| 2026-04-24 19:53 | 44.67251 | 10.23750 | 26250 ft | 447 kts | 142° |
| 2026-04-24 19:53 | 44.62206 | 10.28894 | 26885 ft | 451 kts | 142° |
| 2026-04-24 19:54 | 44.59686 | 10.31459 | 27205 ft | 453 kts | 142° |
| 2026-04-24 19:54 | 44.57121 | 10.34065 | 27515 ft | 455 kts | 142° |
| 2026-04-24 19:54 | 44.54553 | 10.36670 | 27828 ft | 457 kts | 142° |
| 2026-04-24 19:54 | 44.51966 | 10.39290 | 28133 ft | 459 kts | 142° |
| 2026-04-24 19:55 | 44.51119 | 10.40148 | 28233 ft | 459 kts | 142° |
| 2026-04-24 19:55 | 44.46798 | 10.44516 | 28890 ft | 459 kts | 142° |
| 2026-04-24 19:55 | 44.44191 | 10.47146 | 29311 ft | 458 kts | 142° |
| 2026-04-24 19:55 | 44.41640 | 10.49722 | 29726 ft | 457 kts | 142° |
| 2026-04-24 19:56 | 44.39051 | 10.52337 | 30174 ft | 456 kts | 142° |
| 2026-04-24 19:56 | 44.36498 | 10.54914 | 30537 ft | 455 kts | 142° |
| 2026-04-24 19:56 | 44.33933 | 10.57498 | 30882 ft | 454 kts | 142° |
| 2026-04-24 19:56 | 44.31375 | 10.60065 | 31239 ft | 453 kts | 142° |
| 2026-04-24 19:57 | 44.28813 | 10.62632 | 31596 ft | 452 kts | 142° |
| 2026-04-24 19:57 | 44.26243 | 10.65207 | 31930 ft | 452 kts | 142° |
| 2026-04-24 19:57 | 44.23713 | 10.67740 | 32271 ft | 451 kts | 142° |
| 2026-04-24 19:57 | 44.21146 | 10.70311 | 32622 ft | 450 kts | 142° |
| 2026-04-24 19:58 | 44.18640 | 10.72866 | 32957 ft | 449 kts | 140° |
| 2026-04-24 19:58 | 44.16166 | 10.75533 | 33293 ft | 448 kts | 139° |
| 2026-04-24 19:58 | 44.13762 | 10.78227 | 33624 ft | 447 kts | 138° |
| 2026-04-24 19:58 | 44.11359 | 10.80967 | 33967 ft | 446 kts | 138° |
| 2026-04-24 19:59 | 44.08950 | 10.83707 | 34270 ft | 445 kts | 138° |
| 2026-04-24 19:59 | 44.06569 | 10.86388 | 34536 ft | 445 kts | 138° |
| 2026-04-24 19:59 | 44.04120 | 10.89111 | 34816 ft | 445 kts | 138° |
| 2026-04-24 19:59 | 44.01726 | 10.91745 | 35062 ft | 444 kts | 139° |
| 2026-04-24 20:00 | 43.99295 | 10.94403 | 35314 ft | 444 kts | 139° |
| 2026-04-24 20:00 | 43.96870 | 10.97050 | 35555 ft | 444 kts | 139° |
| 2026-04-24 20:00 | 43.94444 | 10.99703 | 35796 ft | 443 kts | 139° |
| 2026-04-24 20:00 | 43.92022 | 11.02358 | 36018 ft | 443 kts | 139° |
| 2026-04-24 20:01 | 43.89605 | 11.05007 | 36248 ft | 443 kts | 139° |
| 2026-04-24 20:01 | 43.87184 | 11.07654 | 36476 ft | 442 kts | 139° |
| 2026-04-24 20:01 | 43.84771 | 11.10287 | 36694 ft | 442 kts | 139° |
| 2026-04-24 20:01 | 43.82352 | 11.12924 | 36908 ft | 442 kts | 139° |
| 2026-04-24 20:02 | 43.80757 | 11.14661 | 37039 ft | 442 kts | 139° |
| 2026-04-24 20:02 | 43.75073 | 11.20846 | 37110 ft | 445 kts | 139° |
| 2026-04-24 20:03 | 43.70214 | 11.26127 | 37110 ft | 446 kts | 138° |
| 2026-04-24 20:03 | 43.65332 | 11.31419 | 37120 ft | 446 kts | 138° |
| 2026-04-24 20:04 | 43.60453 | 11.36694 | 37117 ft | 446 kts | 139° |
| 2026-04-24 20:04 | 43.55587 | 11.41942 | 37126 ft | 446 kts | 139° |
| 2026-04-24 20:05 | 43.51494 | 11.46344 | 37134 ft | 446 kts | 139° |
| 2026-04-24 20:05 | 43.46602 | 11.51603 | 37139 ft | 446 kts | 139° |
| 2026-04-24 20:06 | 43.41710 | 11.56860 | 37135 ft | 446 kts | 138° |
| 2026-04-24 20:06 | 43.36829 | 11.62089 | 37143 ft | 446 kts | 139° |
| 2026-04-24 20:07 | 43.32757 | 11.66434 | 37144 ft | 446 kts | 139° |
| 2026-04-24 20:07 | 43.27044 | 11.72521 | 37146 ft | 446 kts | 139° |
| 2026-04-24 20:08 | 43.22150 | 11.77725 | 37151 ft | 446 kts | 139° |
| 2026-04-24 20:08 | 43.17229 | 11.82946 | 37152 ft | 446 kts | 139° |
| 2026-04-24 20:09 | 43.12320 | 11.88151 | 37140 ft | 445 kts | 139° |
| 2026-04-24 20:09 | 43.07419 | 11.93336 | 37137 ft | 445 kts | 139° |
| 2026-04-24 20:10 | 43.02513 | 11.98509 | 37144 ft | 445 kts | 139° |
| 2026-04-24 20:10 | 42.97609 | 12.03674 | 37138 ft | 445 kts | 139° |
| 2026-04-24 20:11 | 42.92701 | 12.08836 | 37140 ft | 445 kts | 139° |
| 2026-04-24 20:11 | 42.87797 | 12.13976 | 37135 ft | 445 kts | 139° |
| 2026-04-24 20:12 | 42.82908 | 12.19081 | 37134 ft | 445 kts | 139° |
| 2026-04-24 20:12 | 42.77982 | 12.24227 | 37133 ft | 445 kts | 139° |
| 2026-04-24 20:13 | 42.73091 | 12.29322 | 37132 ft | 445 kts | 139° |
| 2026-04-24 20:13 | 42.68164 | 12.34445 | 37134 ft | 445 kts | 139° |
| 2026-04-24 20:14 | 42.63243 | 12.39554 | 37134 ft | 445 kts | 139° |
| 2026-04-24 20:14 | 42.58323 | 12.44654 | 37140 ft | 445 kts | 139° |
| 2026-04-24 20:15 | 42.53389 | 12.49755 | 37138 ft | 445 kts | 139° |
| 2026-04-24 20:15 | 42.48488 | 12.54807 | 37143 ft | 445 kts | 139° |
| 2026-04-24 20:16 | 42.43548 | 12.59886 | 37141 ft | 444 kts | 139° |
| 2026-04-24 20:16 | 42.38646 | 12.64924 | 37142 ft | 444 kts | 139° |
| 2026-04-24 20:17 | 42.33710 | 12.69982 | 37147 ft | 444 kts | 140° |
| 2026-04-24 20:17 | 42.26327 | 12.77524 | 37144 ft | 444 kts | 140° |
| 2026-04-24 20:18 | 42.21387 | 12.82570 | 37148 ft | 444 kts | 140° |
| 2026-04-24 20:18 | 42.16459 | 12.87590 | 37146 ft | 444 kts | 140° |
| 2026-04-24 20:19 | 42.11528 | 12.92591 | 37154 ft | 444 kts | 140° |
| 2026-04-24 20:19 | 42.06588 | 12.97597 | 37151 ft | 444 kts | 140° |
| 2026-04-24 20:20 | 42.01649 | 13.02595 | 37147 ft | 444 kts | 140° |
| 2026-04-24 20:20 | 41.96708 | 13.07580 | 37151 ft | 444 kts | 140° |
| 2026-04-24 20:21 | 41.91761 | 13.12566 | 37158 ft | 444 kts | 140° |
| 2026-04-24 20:21 | 41.86819 | 13.17547 | 37154 ft | 445 kts | 140° |
| 2026-04-24 20:22 | 41.81866 | 13.22516 | 37160 ft | 445 kts | 140° |
| 2026-04-24 20:22 | 41.76921 | 13.27438 | 37160 ft | 445 kts | 140° |
| 2026-04-24 20:23 | 41.71933 | 13.32377 | 37157 ft | 445 kts | 141° |
| 2026-04-24 20:23 | 41.66967 | 13.37281 | 37153 ft | 445 kts | 141° |
| 2026-04-24 20:24 | 41.61963 | 13.42211 | 37153 ft | 445 kts | 141° |
| 2026-04-24 20:24 | 41.56984 | 13.47113 | 37150 ft | 445 kts | 141° |
| 2026-04-24 20:25 | 41.51985 | 13.52028 | 37146 ft | 445 kts | 141° |
| 2026-04-24 20:25 | 41.46991 | 13.56926 | 37145 ft | 446 kts | 141° |
| 2026-04-24 20:26 | 41.41995 | 13.61815 | 37138 ft | 446 kts | 141° |
| 2026-04-24 20:26 | 41.37011 | 13.66686 | 37139 ft | 446 kts | 141° |
| 2026-04-24 20:27 | 41.31998 | 13.71575 | 37135 ft | 446 kts | 141° |
| 2026-04-24 20:27 | 41.27012 | 13.76425 | 37130 ft | 446 kts | 141° |
| 2026-04-24 20:28 | 41.21986 | 13.81305 | 37128 ft | 446 kts | 141° |
| 2026-04-24 20:28 | 41.17005 | 13.86126 | 37128 ft | 446 kts | 141° |
| 2026-04-24 20:29 | 41.11984 | 13.90988 | 37127 ft | 445 kts | 141° |
| 2026-04-24 20:29 | 41.06975 | 13.95828 | 37132 ft | 446 kts | 141° |
| 2026-04-24 20:30 | 41.01958 | 14.00655 | 37131 ft | 446 kts | 141° |
| 2026-04-24 20:30 | 40.96943 | 14.05480 | 37129 ft | 446 kts | 142° |
| 2026-04-24 20:31 | 40.91928 | 14.10295 | 37128 ft | 446 kts | 142° |
| 2026-04-24 20:31 | 40.86904 | 14.15107 | 37126 ft | 446 kts | 142° |
| 2026-04-24 20:32 | 40.81881 | 14.19911 | 37127 ft | 446 kts | 142° |
| 2026-04-24 20:32 | 40.76856 | 14.24710 | 37124 ft | 446 kts | 142° |
| 2026-04-24 20:33 | 40.71850 | 14.29478 | 37128 ft | 446 kts | 142° |
| 2026-04-24 20:33 | 40.66811 | 14.34272 | 37124 ft | 446 kts | 142° |
| 2026-04-24 20:34 | 40.61761 | 14.39070 | 37124 ft | 446 kts | 142° |
| 2026-04-24 20:34 | 40.56740 | 14.43831 | 37122 ft | 446 kts | 142° |
| 2026-04-24 20:35 | 40.51677 | 14.48620 | 37122 ft | 447 kts | 142° |
| 2026-04-24 20:35 | 40.46641 | 14.53359 | 37121 ft | 447 kts | 142° |
| 2026-04-24 20:36 | 40.41581 | 14.58114 | 37120 ft | 447 kts | 142° |
| 2026-04-24 20:36 | 40.36553 | 14.62852 | 37120 ft | 447 kts | 142° |
| 2026-04-24 20:37 | 40.31497 | 14.67610 | 37116 ft | 447 kts | 142° |
| 2026-04-24 20:37 | 40.26427 | 14.72352 | 37115 ft | 447 kts | 142° |
| 2026-04-24 20:38 | 40.21361 | 14.77082 | 37117 ft | 448 kts | 142° |
| 2026-04-24 20:38 | 40.16289 | 14.81819 | 37113 ft | 448 kts | 142° |
| 2026-04-24 20:39 | 40.11478 | 14.86956 | 37117 ft | 446 kts | 136° |
| 2026-04-24 20:39 | 40.06783 | 14.92276 | 37113 ft | 447 kts | 137° |
| 2026-04-24 20:40 | 40.02079 | 14.97577 | 37119 ft | 447 kts | 137° |
| 2026-04-24 20:40 | 39.97372 | 15.02886 | 37120 ft | 447 kts | 137° |
| 2026-04-24 20:41 | 39.92650 | 15.08212 | 37120 ft | 448 kts | 137° |
| 2026-04-24 20:41 | 39.87965 | 15.13485 | 37118 ft | 448 kts | 137° |
| 2026-04-24 20:42 | 39.83245 | 15.18777 | 37118 ft | 448 kts | 137° |
| 2026-04-24 20:42 | 39.78502 | 15.24089 | 37121 ft | 448 kts | 137° |
| 2026-04-24 20:43 | 39.73801 | 15.29349 | 37121 ft | 448 kts | 137° |
| 2026-04-24 20:43 | 39.69068 | 15.34637 | 37120 ft | 449 kts | 137° |
| 2026-04-24 20:44 | 39.64335 | 15.39912 | 37119 ft | 449 kts | 137° |
| 2026-04-24 20:44 | 39.59562 | 15.45218 | 37120 ft | 449 kts | 137° |
| 2026-04-24 20:45 | 39.54846 | 15.50452 | 37120 ft | 449 kts | 137° |
| 2026-04-24 20:45 | 39.50097 | 15.55727 | 37117 ft | 450 kts | 137° |
| 2026-04-24 20:46 | 39.45349 | 15.60984 | 36651 ft | 449 kts | 137° |
| 2026-04-24 20:46 | 39.42996 | 15.63640 | 35961 ft | 447 kts | 131° |
| 2026-04-24 20:46 | 39.41007 | 15.66689 | 35303 ft | 443 kts | 125° |
| 2026-04-24 20:47 | 39.39134 | 15.69847 | 34650 ft | 442 kts | 124° |
| 2026-04-24 20:47 | 39.37267 | 15.73005 | 33988 ft | 441 kts | 124° |
| 2026-04-24 20:47 | 39.36009 | 15.75126 | 33483 ft | 441 kts | 124° |
| 2026-04-24 20:47 | 39.34145 | 15.78265 | 32704 ft | 440 kts | 124° |
| 2026-04-24 20:48 | 39.32279 | 15.81403 | 31936 ft | 440 kts | 124° |
| 2026-04-24 20:48 | 39.30418 | 15.84534 | 31156 ft | 440 kts | 124° |
| 2026-04-24 20:48 | 39.28557 | 15.87662 | 30371 ft | 439 kts | 124° |
| 2026-04-24 20:48 | 39.26697 | 15.90785 | 29457 ft | 439 kts | 124° |
| 2026-04-24 20:49 | 39.24838 | 15.93921 | 28438 ft | 440 kts | 122° |
| 2026-04-24 20:49 | 39.23204 | 15.97260 | 27344 ft | 440 kts | 117° |
| 2026-04-24 20:49 | 39.21638 | 16.00680 | 26208 ft | 444 kts | 117° |
| 2026-04-24 20:49 | 39.20070 | 16.04103 | 25274 ft | 444 kts | 117° |
| 2026-04-24 20:50 | 39.18492 | 16.07538 | 24222 ft | 446 kts | 117° |
| 2026-04-24 20:50 | 39.16905 | 16.10983 | 23143 ft | 447 kts | 117° |
| 2026-04-24 20:50 | 39.15319 | 16.14421 | 22184 ft | 445 kts | 117° |
| 2026-04-24 20:50 | 39.13748 | 16.17840 | 21277 ft | 443 kts | 117° |
| 2026-04-24 20:51 | 39.12184 | 16.21263 | 20339 ft | 443 kts | 117° |
| 2026-04-24 20:51 | 39.10628 | 16.24686 | 19477 ft | 442 kts | 117° |
| 2026-04-24 20:51 | 39.09085 | 16.28098 | 18682 ft | 440 kts | 117° |
| 2026-04-24 20:51 | 39.07555 | 16.31497 | 17834 ft | 438 kts | 117° |
| 2026-04-24 20:52 | 39.06038 | 16.34880 | 17007 ft | 435 kts | 117° |
| 2026-04-24 20:52 | 39.04529 | 16.38242 | 16203 ft | 433 kts | 117° |
| 2026-04-24 20:52 | 39.03028 | 16.41588 | 15419 ft | 431 kts | 117° |
| 2026-04-24 20:52 | 39.01533 | 16.44921 | 14658 ft | 429 kts | 117° |
| 2026-04-24 20:53 | 39.00044 | 16.48247 | 13914 ft | 428 kts | 117° |
| 2026-04-24 20:53 | 38.98564 | 16.51556 | 13112 ft | 425 kts | 117° |
| 2026-04-24 20:53 | 38.97105 | 16.54831 | 12424 ft | 420 kts | 117° |
| 2026-04-24 20:53 | 38.95675 | 16.58070 | 11747 ft | 414 kts | 117° |
| 2026-04-24 20:54 | 38.94268 | 16.61268 | 11020 ft | 409 kts | 117° |
| 2026-04-24 20:54 | 38.92922 | 16.64453 | 10368 ft | 402 kts | 112° |
| 2026-04-24 20:54 | 38.92027 | 16.67804 | 9818 ft | 391 kts | 105° |
| 2026-04-24 20:54 | 38.91244 | 16.71021 | 9275 ft | 365 kts | 105° |
| 2026-04-24 20:55 | 38.90505 | 16.74035 | 8761 ft | 343 kts | 105° |
| 2026-04-24 20:55 | 38.89804 | 16.76878 | 8250 ft | 325 kts | 105° |
| 2026-04-24 20:55 | 38.89144 | 16.79578 | 7742 ft | 309 kts | 102° |
| 2026-04-24 20:55 | 38.88826 | 16.82222 | 7255 ft | 293 kts | 92° |
| 2026-04-24 20:56 | 38.88624 | 16.84785 | 6762 ft | 283 kts | 92° |
| 2026-04-24 20:56 | 38.88429 | 16.87255 | 6293 ft | 274 kts | 91° |
| 2026-04-24 20:56 | 38.88239 | 16.89643 | 5826 ft | 264 kts | 91° |
| 2026-04-24 20:56 | 38.88056 | 16.91948 | 5370 ft | 255 kts | 91° |
| 2026-04-24 20:57 | 38.87879 | 16.94188 | 4915 ft | 248 kts | 91° |
| 2026-04-24 20:57 | 38.87709 | 16.96358 | 4456 ft | 241 kts | 92° |
| 2026-04-24 20:57 | 38.87543 | 16.98466 | 4072 ft | 233 kts | 92° |
| 2026-04-24 20:57 | 38.87407 | 17.00511 | 3691 ft | 226 kts | 84° |
| 2026-04-24 20:58 | 38.87727 | 17.02423 | 3348 ft | 216 kts | 68° |
| 2026-04-24 20:58 | 38.88215 | 17.04223 | 3098 ft | 212 kts | 68° |
| 2026-04-24 20:58 | 38.88695 | 17.05995 | 2826 ft | 207 kts | 68° |
| 2026-04-24 20:58 | 38.89162 | 17.07720 | 2531 ft | 202 kts | 68° |
| 2026-04-24 20:59 | 38.89683 | 17.09334 | 2346 ft | 186 kts | 50° |
| 2026-04-24 20:59 | 38.90669 | 17.10154 | 2244 ft | 164 kts | 9° |
| 2026-04-24 20:59 | 38.91788 | 17.10014 | 2004 ft | 159 kts | 349° |
| 2026-04-24 20:59 | 38.92821 | 17.09754 | 1785 ft | 145 kts | 350° |
| 2026-04-24 21:00 | 38.93784 | 17.09515 | 1577 ft | 138 kts | 349° |
| 2026-04-24 21:00 | 38.94719 | 17.09280 | 1378 ft | 136 kts | 349° |
| 2026-04-24 21:00 | 38.95651 | 17.09048 | 1191 ft | 137 kts | 348° |
| 2026-04-24 21:00 | 38.96593 | 17.08811 | 1013 ft | 138 kts | 347° |
| 2026-04-24 21:01 | 38.97537 | 17.08572 | 814 ft | 138 kts | 347° |
| 2026-04-24 21:01 | 38.98480 | 17.08331 | 632 ft | 138 kts | 347° |
| 2026-04-24 21:01 | 38.99399 | 17.08099 | 531 ft | 125 kts | 347° |
| 2026-04-24 21:01 | 39.00193 | 17.07867 | 557 ft | 121 kts | 343° |
| 2026-04-24 21:02 | 39.00938 | 17.07592 | 538 ft | 74 kts | 346° |
| 2026-04-24 21:02 | 39.01089 | 17.07530 | 542 ft | 6 kts | 319° |